Time;durP1;ratioP1;P1;durP2;ratioP2;P2;SDS_P1;SDS_P2;PMS_P1;PMS_P2;Temp;Humidity;BMP_temperature;BMP_pressure;BME280_temperature;BME280_humidity;BME280_pressure;Samples;Min_cycle;Max_cycle;Signal;HPM_P1;HPM_P2
2024/02/17 00:00:23;;;;;;;5.87;5.77;;;;;;;;;;5009837;28;20458;-70
2024/02/17 00:02:52;;;;;;;5.80;5.70;;;;;;;;;;5012660;28;20492;-69
2024/02/17 00:05:19;;;;;;;6.40;6.30;;;;;;;;;;5014907;28;20492;-70
2024/02/17 00:07:46;;;;;;;5.90;5.80;;;;;;;;;;5037290;28;20465;-70
2024/02/17 00:10:14;;;;;;;5.53;5.43;;;;;;;;;;5025107;28;20843;-70
2024/02/17 00:12:41;;;;;;;6.17;6.07;;;;;;;;;;5011290;28;20920;-69
2024/02/17 00:15:09;;;;;;;5.87;5.77;;;;;;;;;;5018057;28;20613;-69
2024/02/17 00:17:36;;;;;;;6.30;6.20;;;;;;;;;;5021738;28;20804;-69
2024/02/17 00:20:07;;;;;;;6.47;6.37;;;;;;;;;;5014565;28;20838;-70
2024/02/17 00:22:34;;;;;;;5.87;5.77;;;;;;;;;;5020033;28;20554;-70
2024/02/17 00:25:01;;;;;;;6.40;6.30;;;;;;;;;;5012570;28;20787;-69
2024/02/17 00:27:28;;;;;;;5.87;5.77;;;;;;;;;;5016643;28;20470;-69
2024/02/17 00:29:55;;;;;;;5.83;5.73;;;;;;;;;;5043131;28;20952;-69
2024/02/17 00:32:22;;;;;;;4.70;4.70;;;;;;;;;;5046990;28;20471;-70
2024/02/17 00:34:49;;;;;;;5.80;5.70;;;;;;;;;;5023212;28;20472;-70
2024/02/17 00:37:18;;;;;;;5.73;5.63;;;;;;;;;;5028287;28;20465;-71
2024/02/17 00:39:45;;;;;;;4.60;4.60;;;;;;;;;;5024012;28;20457;-69
2024/02/17 00:42:13;;;;;;;5.33;5.23;;;;;;;;;;5016477;28;20458;-69
2024/02/17 00:44:40;;;;;;;4.83;4.83;;;;;;;;;;5023683;28;20478;-69
2024/02/17 00:47:07;;;;;;;4.87;4.87;;;;;;;;;;5023317;28;20460;-69
2024/02/17 00:49:35;;;;;;;4.60;4.60;;;;;;;;;;5015321;28;20463;-70
2024/02/17 00:52:02;;;;;;;4.70;4.70;;;;;;;;;;5013253;28;20846;-70
2024/02/17 00:54:30;;;;;;;5.43;5.33;;;;;;;;;;5024350;27;20841;-69
2024/02/17 00:56:57;;;;;;;5.53;5.43;;;;;;;;;;4998881;27;20794;-70
2024/02/17 00:59:24;;;;;;;5.37;5.27;;;;;;;;;;4983421;28;20457;-70
2024/02/17 01:01:52;;;;;;;5.80;5.70;;;;;;;;;;4982398;28;20926;-71
2024/02/17 01:04:19;;;;;;;4.70;4.70;;;;;;;;;;4981886;28;21497;-69
2024/02/17 01:06:46;;;;;;;4.73;4.73;;;;;;;;;;4983023;27;20485;-69
2024/02/17 01:09:13;;;;;;;5.40;5.30;;;;;;;;;;4984600;27;20463;-70
2024/02/17 01:11:42;;;;;;;5.00;5.00;;;;;;;;;;4983895;27;22427;-71
2024/02/17 01:14:09;;;;;;;5.20;5.10;;;;;;;;;;4984008;27;20994;-70
2024/02/17 01:16:36;;;;;;;5.13;5.10;;;;;;;;;;4982823;27;20473;-70
2024/02/17 01:19:03;;;;;;;4.73;4.73;;;;;;;;;;4982121;27;20469;-70
2024/02/17 01:21:33;;;;;;;5.43;5.33;;;;;;;;;;4983770;27;20470;-70
2024/02/17 01:24:00;;;;;;;5.00;4.97;;;;;;;;;;4983004;27;21374;-69
2024/02/17 01:26:28;;;;;;;4.70;4.70;;;;;;;;;;4982909;27;20506;-70
2024/02/17 01:28:57;;;;;;;4.70;4.70;;;;;;;;;;4983421;27;20466;-71
2024/02/17 01:31:24;;;;;;;4.30;4.30;;;;;;;;;;4982617;28;20466;-69
2024/02/17 01:33:51;;;;;;;5.03;5.03;;;;;;;;;;4983223;28;20501;-70
2024/02/17 01:36:18;;;;;;;5.23;5.13;;;;;;;;;;4981513;28;20814;-70
2024/02/17 01:38:46;;;;;;;4.90;4.90;;;;;;;;;;4982105;27;21017;-70
2024/02/17 01:41:13;;;;;;;4.70;4.70;;;;;;;;;;4982430;28;20481;-71
2024/02/17 01:43:40;;;;;;;5.00;5.00;;;;;;;;;;4983827;27;20482;-71
2024/02/17 01:46:09;;;;;;;4.40;4.40;;;;;;;;;;4981257;27;20596;-70
2024/02/17 01:48:37;;;;;;;4.47;4.47;;;;;;;;;;4982965;28;20472;-71
2024/02/17 01:51:05;;;;;;;4.53;4.53;;;;;;;;;;4981834;27;20533;-69
2024/02/17 01:53:32;;;;;;;4.37;4.37;;;;;;;;;;4982004;27;20493;-70
2024/02/17 01:55:59;;;;;;;5.13;5.07;;;;;;;;;;4991944;27;20470;-70
2024/02/17 01:58:26;;;;;;;4.40;4.40;;;;;;;;;;5027576;27;20460;-70
2024/02/17 02:00:53;;;;;;;3.67;3.67;;;;;;;;;;5027679;27;20610;-69
2024/02/17 02:03:22;;;;;;;4.37;4.37;;;;;;;;;;5029967;27;20463;-69
2024/02/17 02:05:49;;;;;;;4.13;4.13;;;;;;;;;;5013385;27;20471;-70
2024/02/17 02:08:17;;;;;;;3.90;3.90;;;;;;;;;;5026783;27;20461;-69
2024/02/17 02:10:44;;;;;;;3.80;3.80;;;;;;;;;;5028502;27;20481;-69
2024/02/17 02:13:11;;;;;;;3.90;3.90;;;;;;;;;;5042208;27;20488;-71
2024/02/17 02:15:42;;;;;;;4.07;4.07;;;;;;;;;;5029730;27;20484;-71
2024/02/17 02:18:09;;;;;;;3.77;3.77;;;;;;;;;;5017090;27;20473;-71
2024/02/17 02:20:39;;;;;;;4.10;4.10;;;;;;;;;;5016962;27;20899;-71
2024/02/17 02:23:06;;;;;;;3.93;3.93;;;;;;;;;;5031123;27;20467;-70
2024/02/17 02:25:33;;;;;;;4.30;4.30;;;;;;;;;;5027465;27;20465;-70
2024/02/17 02:28:02;;;;;;;3.50;3.50;;;;;;;;;;5028487;28;20458;-71
2024/02/17 02:30:29;;;;;;;3.90;3.90;;;;;;;;;;5039787;27;20560;-69
2024/02/17 02:33:00;;;;;;;3.87;3.87;;;;;;;;;;5019568;27;20468;-70
2024/02/17 02:35:27;;;;;;;3.43;3.43;;;;;;;;;;5024965;27;20950;-70
2024/02/17 02:37:55;;;;;;;3.90;3.90;;;;;;;;;;5028160;27;20462;-70
2024/02/17 02:40:22;;;;;;;4.10;4.10;;;;;;;;;;5025253;27;20451;-70
2024/02/17 02:42:49;;;;;;;3.77;3.77;;;;;;;;;;5017872;27;20473;-69
2024/02/17 02:45:18;;;;;;;3.23;3.23;;;;;;;;;;5026142;27;20473;-70
2024/02/17 02:47:45;;;;;;;3.73;3.73;;;;;;;;;;5023620;28;20465;-71
2024/02/17 02:50:13;;;;;;;3.17;3.17;;;;;;;;;;5029367;27;20456;-69
2024/02/17 02:52:40;;;;;;;3.67;3.67;;;;;;;;;;5027842;27;20498;-69
2024/02/17 02:55:07;;;;;;;3.70;3.70;;;;;;;;;;5039821;27;20489;-70
2024/02/17 02:57:35;;;;;;;3.30;3.30;;;;;;;;;;5045328;27;20484;-70
2024/02/17 03:00:03;;;;;;;3.43;3.43;;;;;;;;;;5030746;27;20752;-70
2024/02/17 03:02:31;;;;;;;3.70;3.70;;;;;;;;;;5025816;27;20541;-70
2024/02/17 03:04:59;;;;;;;3.50;3.50;;;;;;;;;;5038406;27;20814;-69
2024/02/17 03:07:28;;;;;;;3.60;3.60;;;;;;;;;;5017411;27;20466;-71
2024/02/17 03:09:55;;;;;;;3.60;3.60;;;;;;;;;;5063447;27;20532;-70
2024/02/17 03:12:22;;;;;;;4.00;4.00;;;;;;;;;;5017098;28;20462;-70
2024/02/17 03:14:50;;;;;;;3.90;3.90;;;;;;;;;;5028356;27;20529;-71
2024/02/17 03:17:17;;;;;;;3.97;3.97;;;;;;;;;;5029007;27;20461;-70
2024/02/17 03:19:46;;;;;;;3.43;3.43;;;;;;;;;;5027969;28;20463;-69
2024/02/17 03:22:13;;;;;;;3.80;3.80;;;;;;;;;;5017935;28;20986;-70
2024/02/17 03:24:41;;;;;;;3.60;3.60;;;;;;;;;;5071136;27;20569;-70
2024/02/17 03:27:08;;;;;;;3.50;3.50;;;;;;;;;;5023094;27;20481;-70
2024/02/17 03:29:36;;;;;;;3.77;3.77;;;;;;;;;;5023299;27;20467;-70
2024/02/17 03:32:03;;;;;;;3.73;3.73;;;;;;;;;;5056707;27;20453;-71
2024/02/17 03:34:30;;;;;;;3.37;3.37;;;;;;;;;;5016282;27;20483;-69
2024/02/17 03:36:59;;;;;;;3.40;3.40;;;;;;;;;;5042541;27;20459;-70
2024/02/17 03:39:26;;;;;;;3.60;3.60;;;;;;;;;;5024643;28;20465;-69
2024/02/17 03:41:54;;;;;;;3.57;3.57;;;;;;;;;;5057755;27;20817;-71
2024/02/17 03:44:22;;;;;;;3.37;3.37;;;;;;;;;;5055704;27;20533;-70
2024/02/17 03:46:49;;;;;;;2.83;2.83;;;;;;;;;;5035916;27;20977;-71
2024/02/17 03:49:19;;;;;;;3.23;3.23;;;;;;;;;;5017702;27;20475;-69
2024/02/17 03:51:47;;;;;;;3.50;3.50;;;;;;;;;;5028066;27;20484;-72
2024/02/17 03:54:16;;;;;;;3.30;3.30;;;;;;;;;;5027845;28;20484;-69
2024/02/17 03:56:45;;;;;;;3.70;3.70;;;;;;;;;;5027530;28;20534;-71
2024/02/17 03:59:12;;;;;;;3.40;3.40;;;;;;;;;;5023556;27;20959;-71
2024/02/17 04:01:39;;;;;;;3.40;3.40;;;;;;;;;;5027596;28;20462;-71
2024/02/17 04:04:06;;;;;;;3.30;3.30;;;;;;;;;;5027457;28;20457;-70
2024/02/17 04:06:34;;;;;;;4.10;4.10;;;;;;;;;;5019498;28;20540;-70
2024/02/17 04:09:02;;;;;;;3.30;3.30;;;;;;;;;;5029473;28;21216;-71
2024/02/17 04:11:31;;;;;;;3.43;3.43;;;;;;;;;;5022413;28;20506;-72
2024/02/17 04:13:58;;;;;;;3.73;3.73;;;;;;;;;;5027755;28;20488;-71
2024/02/17 04:16:25;;;;;;;3.60;3.60;;;;;;;;;;5026411;28;20464;-71
2024/02/17 04:18:52;;;;;;;3.73;3.73;;;;;;;;;;5056171;28;20469;-69
2024/02/17 04:21:21;;;;;;;3.77;3.77;;;;;;;;;;5015780;28;20465;-71
2024/02/17 04:23:48;;;;;;;4.00;4.00;;;;;;;;;;5018476;28;20467;-69
2024/02/17 04:26:15;;;;;;;3.67;3.67;;;;;;;;;;5068672;28;20449;-70
2024/02/17 04:28:45;;;;;;;3.60;3.60;;;;;;;;;;5030093;27;20558;-70
2024/02/17 04:31:12;;;;;;;3.20;3.20;;;;;;;;;;5028376;27;20531;-71
2024/02/17 04:33:40;;;;;;;3.60;3.60;;;;;;;;;;5030311;27;20453;-69
2024/02/17 04:36:08;;;;;;;3.07;3.07;;;;;;;;;;5021271;27;20558;-70
2024/02/17 04:38:35;;;;;;;3.30;3.30;;;;;;;;;;5031834;27;20786;-71
2024/02/17 04:41:02;;;;;;;3.30;3.30;;;;;;;;;;5054633;27;20466;-70
2024/02/17 04:43:30;;;;;;;3.40;3.40;;;;;;;;;;5017827;28;20489;-69
2024/02/17 04:45:59;;;;;;;3.50;3.50;;;;;;;;;;5031874;27;20493;-70
2024/02/17 04:48:26;;;;;;;3.57;3.57;;;;;;;;;;5030428;28;20465;-70
2024/02/17 04:50:53;;;;;;;3.60;3.60;;;;;;;;;;5030277;27;20457;-70
2024/02/17 04:53:21;;;;;;;3.40;3.40;;;;;;;;;;5018055;27;20466;-69
2024/02/17 04:55:49;;;;;;;3.47;3.47;;;;;;;;;;5020618;27;20493;-70
2024/02/17 04:58:17;;;;;;;3.43;3.43;;;;;;;;;;5030489;27;20461;-69
2024/02/17 05:00:46;;;;;;;3.87;3.87;;;;;;;;;;5025001;27;20556;-70
2024/02/17 05:03:15;;;;;;;3.77;3.77;;;;;;;;;;5022957;27;20566;-69
2024/02/17 05:05:43;;;;;;;3.80;3.80;;;;;;;;;;5018047;27;20982;-69
2024/02/17 05:08:10;;;;;;;3.53;3.53;;;;;;;;;;5027388;27;20916;-70
2024/02/17 05:10:39;;;;;;;3.73;3.73;;;;;;;;;;5058902;27;20899;-71
2024/02/17 05:13:06;;;;;;;3.67;3.67;;;;;;;;;;5021447;27;20465;-69
2024/02/17 05:15:33;;;;;;;3.53;3.53;;;;;;;;;;5028485;27;20508;-71
2024/02/17 05:18:01;;;;;;;3.77;3.77;;;;;;;;;;5025313;28;20964;-71
2024/02/17 05:20:29;;;;;;;3.50;3.50;;;;;;;;;;5025242;27;20476;-71
2024/02/17 05:22:57;;;;;;;4.20;4.20;;;;;;;;;;5028740;27;20470;-70
2024/02/17 05:25:24;;;;;;;3.80;3.80;;;;;;;;;;5021996;27;20466;-70
2024/02/17 05:27:51;;;;;;;3.60;3.60;;;;;;;;;;5019070;27;20464;-70
2024/02/17 05:30:18;;;;;;;4.23;4.23;;;;;;;;;;5023058;28;20457;-71
2024/02/17 05:32:45;;;;;;;4.00;4.00;;;;;;;;;;5028099;27;20473;-70
2024/02/17 05:35:12;;;;;;;3.57;3.57;;;;;;;;;;5026800;27;20481;-70
2024/02/17 05:37:41;;;;;;;4.10;4.10;;;;;;;;;;5015137;27;20548;-71
2024/02/17 05:40:09;;;;;;;4.10;4.10;;;;;;;;;;5019098;27;20465;-70
2024/02/17 05:42:36;;;;;;;3.90;3.90;;;;;;;;;;5045919;27;20468;-71
2024/02/17 05:45:03;;;;;;;3.70;3.70;;;;;;;;;;5019181;27;20494;-70
2024/02/17 05:47:30;;;;;;;3.90;3.90;;;;;;;;;;5029315;27;21352;-71
2024/02/17 05:49:58;;;;;;;4.00;4.00;;;;;;;;;;5026278;27;20686;-71
2024/02/17 05:52:25;;;;;;;4.50;4.50;;;;;;;;;;5020645;27;21003;-69
2024/02/17 05:54:54;;;;;;;4.23;4.23;;;;;;;;;;5019392;27;20844;-70
2024/02/17 05:57:21;;;;;;;3.90;3.90;;;;;;;;;;5016525;27;20480;-71
2024/02/17 05:59:48;;;;;;;3.87;3.87;;;;;;;;;;5020610;28;20991;-70
2024/02/17 06:02:15;;;;;;;4.30;4.30;;;;;;;;;;5032067;27;20468;-71
2024/02/17 06:04:42;;;;;;;4.00;4.00;;;;;;;;;;5018928;27;20990;-71
2024/02/17 06:07:09;;;;;;;4.50;4.50;;;;;;;;;;5025710;27;20458;-70
2024/02/17 06:09:36;;;;;;;4.13;4.13;;;;;;;;;;5054206;27;20746;-71
2024/02/17 06:12:06;;;;;;;3.97;3.97;;;;;;;;;;5017633;27;20477;-71
2024/02/17 06:14:33;;;;;;;4.00;4.00;;;;;;;;;;5017427;27;20679;-70
2024/02/17 06:17:05;;;;;;;4.50;4.50;;;;;;;;;;5024568;27;20977;-71
2024/02/17 06:22:16;;;;;;;4.53;4.53;;;;;;;;;;5032138;27;20460;-71
2024/02/17 06:24:43;;;;;;;4.40;4.40;;;;;;;;;;5034577;27;20782;-70
2024/02/17 06:27:14;;;;;;;3.67;3.67;;;;;;;;;;5024947;27;20473;-70
2024/02/17 06:29:42;;;;;;;4.27;4.27;;;;;;;;;;5024584;27;20465;-72
2024/02/17 06:32:10;;;;;;;4.63;4.63;;;;;;;;;;5027133;27;20453;-71
2024/02/17 06:34:37;;;;;;;3.97;3.97;;;;;;;;;;5020236;28;20485;-71
2024/02/17 06:37:05;;;;;;;4.87;4.87;;;;;;;;;;5014440;27;20971;-71
2024/02/17 06:39:34;;;;;;;4.27;4.27;;;;;;;;;;5027259;27;20549;-71
2024/02/17 06:42:01;;;;;;;4.10;4.10;;;;;;;;;;5030015;27;20829;-72
2024/02/17 06:44:29;;;;;;;3.70;3.70;;;;;;;;;;5030156;27;20494;-72
2024/02/17 06:46:57;;;;;;;4.37;4.37;;;;;;;;;;5025655;28;20912;-72
2024/02/17 06:49:24;;;;;;;5.00;5.00;;;;;;;;;;5026162;27;20466;-72
2024/02/17 06:51:51;;;;;;;4.87;4.87;;;;;;;;;;5023331;27;20903;-72
2024/02/17 06:54:18;;;;;;;5.43;5.33;;;;;;;;;;5009700;27;20503;-72
2024/02/17 06:56:45;;;;;;;4.50;4.50;;;;;;;;;;5037949;27;20457;-71
2024/02/17 06:59:12;;;;;;;5.03;5.03;;;;;;;;;;5026691;27;20454;-72
2024/02/17 07:01:40;;;;;;;5.93;5.83;;;;;;;;;;5066909;27;20469;-72
2024/02/17 07:04:08;;;;;;;4.50;4.50;;;;;;;;;;5021652;28;20465;-72
2024/02/17 07:06:35;;;;;;;4.70;4.70;;;;;;;;;;5032029;27;20518;-72
2024/02/17 07:09:03;;;;;;;4.97;4.97;;;;;;;;;;5040943;27;20833;-71
2024/02/17 07:11:30;;;;;;;4.57;4.57;;;;;;;;;;5021195;27;20450;-71
2024/02/17 07:13:57;;;;;;;4.30;4.30;;;;;;;;;;5012775;28;20484;-71
2024/02/17 07:16:25;;;;;;;3.80;3.80;;;;;;;;;;5028348;27;21029;-72
2024/02/17 07:18:57;;;;;;;4.70;4.70;;;;;;;;;;5025858;27;20823;-72
2024/02/17 07:21:24;;;;;;;4.30;4.30;;;;;;;;;;5026193;27;20791;-72
2024/02/17 07:23:52;;;;;;;4.67;4.67;;;;;;;;;;5015071;27;20485;-71
2024/02/17 07:26:19;;;;;;;4.77;4.77;;;;;;;;;;5017479;27;20465;-71
2024/02/17 07:28:47;;;;;;;4.03;4.03;;;;;;;;;;5023977;27;20458;-71
2024/02/17 07:31:16;;;;;;;4.63;4.63;;;;;;;;;;5018980;28;20561;-71
2024/02/17 07:33:43;;;;;;;4.20;4.20;;;;;;;;;;5048913;27;20462;-72
2024/02/17 07:36:11;;;;;;;4.70;4.70;;;;;;;;;;5024899;28;20479;-71
2024/02/17 07:38:39;;;;;;;3.87;3.87;;;;;;;;;;5016142;28;20462;-71
2024/02/17 07:41:06;;;;;;;4.63;4.63;;;;;;;;;;5017491;27;20473;-72
2024/02/17 07:43:34;;;;;;;4.63;4.63;;;;;;;;;;5035245;27;20500;-72
2024/02/17 07:46:01;;;;;;;4.70;4.70;;;;;;;;;;5024704;27;20458;-72
2024/02/17 07:48:28;;;;;;;5.00;5.00;;;;;;;;;;5035568;27;20477;-72
2024/02/17 07:50:55;;;;;;;4.13;4.13;;;;;;;;;;5012388;28;20472;-71
2024/02/17 07:53:24;;;;;;;4.97;4.97;;;;;;;;;;5017061;28;20468;-71
2024/02/17 07:55:51;;;;;;;4.80;4.80;;;;;;;;;;5014273;28;20500;-72
2024/02/17 07:58:17;;;;;;;4.77;4.77;;;;;;;;;;5019371;28;20841;-71
2024/02/17 08:00:44;;;;;;;5.10;5.00;;;;;;;;;;5017693;28;20584;-72
2024/02/17 08:03:12;;;;;;;4.80;4.80;;;;;;;;;;5020496;28;20895;-71
2024/02/17 08:05:39;;;;;;;4.67;4.67;;;;;;;;;;5017557;27;20465;-71
2024/02/17 08:08:07;;;;;;;5.43;5.33;;;;;;;;;;5032418;28;20461;-71
2024/02/17 08:10:36;;;;;;;4.77;4.77;;;;;;;;;;5041797;28;20464;-71
2024/02/17 08:13:04;;;;;;;4.40;4.40;;;;;;;;;;5023075;28;20467;-71
2024/02/17 08:15:31;;;;;;;5.10;5.07;;;;;;;;;;5015023;28;20485;-72
2024/02/17 08:17:58;;;;;;;5.63;5.53;;;;;;;;;;5023412;28;20697;-71
2024/02/17 08:20:25;;;;;;;5.77;5.67;;;;;;;;;;5022766;28;20465;-72
2024/02/17 08:22:52;;;;;;;5.30;5.20;;;;;;;;;;5026179;28;20465;-72
2024/02/17 08:25:19;;;;;;;5.63;5.53;;;;;;;;;;5026553;28;20467;-71
2024/02/17 08:27:48;;;;;;;5.90;5.80;;;;;;;;;;5066052;28;20801;-71
2024/02/17 08:30:15;;;;;;;5.90;5.80;;;;;;;;;;5018224;28;20811;-72
2024/02/17 08:32:42;;;;;;;5.77;5.67;;;;;;;;;;5024750;28;20468;-71
2024/02/17 08:35:10;;;;;;;4.30;4.30;;;;;;;;;;5022754;28;20554;-72
2024/02/17 08:37:37;;;;;;;5.07;5.00;;;;;;;;;;5033741;28;20544;-71
2024/02/17 08:40:05;;;;;;;5.60;5.50;;;;;;;;;;5014784;28;20466;-72
2024/02/17 08:42:32;;;;;;;5.70;5.60;;;;;;;;;;5020108;28;20959;-72
2024/02/17 08:45:01;;;;;;;5.90;5.80;;;;;;;;;;5019224;28;20489;-72
2024/02/17 08:47:28;;;;;;;4.63;4.63;;;;;;;;;;5046574;28;20933;-72
2024/02/17 08:49:56;;;;;;;5.73;5.63;;;;;;;;;;5020766;28;20488;-71
2024/02/17 08:52:23;;;;;;;6.47;6.37;;;;;;;;;;5017868;28;21046;-70
2024/02/17 08:54:50;;;;;;;5.33;5.23;;;;;;;;;;5017892;28;20517;-72
2024/02/17 08:57:17;;;;;;;5.67;5.57;;;;;;;;;;5010340;28;20519;-72
2024/02/17 08:59:44;;;;;;;5.93;5.83;;;;;;;;;;5008025;28;20464;-72
2024/02/17 09:02:17;;;;;;;5.27;5.17;;;;;;;;;;5007555;28;20993;-73
2024/02/17 09:04:45;;;;;;;4.60;4.60;;;;;;;;;;5005525;28;22944;-70
2024/02/17 09:07:13;;;;;;;4.70;4.70;;;;;;;;;;5004194;28;20462;-71
2024/02/17 09:09:40;;;;;;;6.20;6.10;;;;;;;;;;5001078;28;20935;-71
2024/02/17 09:12:07;;;;;;;6.27;6.17;;;;;;;;;;5007435;28;20470;-71
2024/02/17 09:14:34;;;;;;;5.50;5.40;;;;;;;;;;5008894;27;20478;-71
2024/02/17 09:17:01;;;;;;;6.13;6.03;;;;;;;;;;5010558;28;20500;-72
2024/02/17 09:19:32;;;;;;;6.37;6.27;;;;;;;;;;5008364;28;20858;-72
2024/02/17 09:21:59;;;;;;;6.20;6.10;;;;;;;;;;5010957;27;20793;-72
2024/02/17 09:24:26;;;;;;;6.57;6.47;;;;;;;;;;5005735;28;20466;-70
2024/02/17 09:26:55;;;;;;;6.80;6.70;;;;;;;;;;5008386;27;20470;-70
2024/02/17 09:29:22;;;;;;;6.00;5.90;;;;;;;;;;5012327;28;20960;-72
2024/02/17 09:31:49;;;;;;;6.67;6.57;;;;;;;;;;5011743;27;20470;-71
2024/02/17 09:34:16;;;;;;;7.07;6.97;;;;;;;;;;5005330;28;20744;-71
2024/02/17 09:36:47;;;;;;;6.80;6.70;;;;;;;;;;5011166;28;20709;-71
2024/02/17 09:39:14;;;;;;;6.80;6.70;;;;;;;;;;5004954;28;20529;-71
2024/02/17 09:41:42;;;;;;;6.97;6.87;;;;;;;;;;5012686;27;20836;-71
2024/02/17 09:44:09;;;;;;;6.27;6.17;;;;;;;;;;5011703;27;20486;-71
2024/02/17 09:46:36;;;;;;;6.60;6.50;;;;;;;;;;5014808;27;20902;-71
2024/02/17 09:49:04;;;;;;;7.20;7.10;;;;;;;;;;5039511;27;21441;-72
2024/02/17 09:51:31;;;;;;;7.10;7.00;;;;;;;;;;5034445;27;20521;-71
2024/02/17 09:54:00;;;;;;;7.57;7.47;;;;;;;;;;4972604;27;20954;-71
2024/02/17 09:56:28;;;;;;;8.33;8.23;;;;;;;;;;4972602;27;20599;-70
2024/02/17 09:58:56;;;;;;;7.80;7.70;;;;;;;;;;5007635;28;20952;-71
2024/02/17 10:01:26;;;;;;;7.37;7.27;;;;;;;;;;5007189;28;20480;-72
2024/02/17 10:03:54;;;;;;;7.80;7.70;;;;;;;;;;5008247;27;20470;-71
2024/02/17 10:06:22;;;;;;;7.30;7.20;;;;;;;;;;5011764;27;20466;-70
2024/02/17 10:08:50;;;;;;;7.50;7.40;;;;;;;;;;5012120;27;20500;-70
2024/02/17 10:11:19;;;;;;;7.37;7.27;;;;;;;;;;5010134;27;20474;-72
2024/02/17 10:13:58;;;;;;;7.90;7.80;;;;;;;;;;5011839;28;20482;-72
2024/02/17 10:16:26;;;;;;;8.00;7.90;;;;;;;;;;5007430;28;20501;-70
2024/02/17 10:18:53;;;;;;;7.60;7.50;;;;;;;;;;5012567;27;20473;-72
2024/02/17 10:21:23;;;;;;;7.80;7.70;;;;;;;;;;5014231;27;20927;-70
2024/02/17 10:23:50;;;;;;;8.23;8.13;;;;;;;;;;5012102;28;20459;-72
2024/02/17 10:26:19;;;;;;;8.77;8.67;;;;;;;;;;5012830;28;20904;-71
2024/02/17 10:28:54;;;;;;;9.13;8.93;;;;;;;;;;5008497;27;20462;-71
2024/02/17 10:31:21;;;;;;;8.93;8.73;;;;;;;;;;5006535;28;20476;-71
2024/02/17 10:33:49;;;;;;;9.13;8.93;;;;;;;;;;5006924;27;20476;-70
2024/02/17 10:36:17;;;;;;;9.03;8.83;;;;;;;;;;5008175;28;20844;-71
2024/02/17 10:38:45;;;;;;;9.00;8.80;;;;;;;;;;5009788;27;20503;-71
2024/02/17 10:41:13;;;;;;;8.60;8.50;;;;;;;;;;5000906;27;20556;-72
2024/02/17 10:43:44;;;;;;;9.07;8.87;;;;;;;;;;5012561;27;21031;-70
2024/02/17 10:46:14;;;;;;;8.83;8.70;;;;;;;;;;5010679;28;20554;-73
2024/02/17 10:48:43;;;;;;;9.10;8.90;;;;;;;;;;5007496;27;20482;-70
2024/02/17 10:51:10;;;;;;;9.37;9.17;;;;;;;;;;5005062;27;20803;-71
2024/02/17 10:53:42;;;;;;;9.37;9.17;;;;;;;;;;5009923;28;20461;-70
2024/02/17 10:56:15;;;;;;;9.20;9.00;;;;;;;;;;5012545;27;20486;-70
2024/02/17 10:58:44;;;;;;;8.97;8.80;;;;;;;;;;5009383;27;20462;-70
2024/02/17 11:01:14;;;;;;;8.80;8.70;;;;;;;;;;5008017;27;20463;-73
2024/02/17 11:03:42;;;;;;;9.33;9.13;;;;;;;;;;5008081;28;20886;-71
2024/02/17 11:06:13;;;;;;;8.80;8.70;;;;;;;;;;5008849;27;20925;-71
2024/02/17 11:08:40;;;;;;;8.57;8.47;;;;;;;;;;5016082;27;20475;-71
2024/02/17 11:11:23;;;;;;;9.30;9.10;;;;;;;;;;5007221;27;20475;-70
2024/02/17 11:13:52;;;;;;;9.50;9.30;;;;;;;;;;5006304;28;20827;-72
2024/02/17 11:16:20;;;;;;;9.10;8.90;;;;;;;;;;5004596;28;20592;-70
2024/02/17 11:18:47;;;;;;;10.20;10.00;;;;;;;;;;4997823;27;20712;-71
2024/02/17 11:21:14;;;;;;;9.60;9.40;;;;;;;;;;5000456;27;20510;-69
2024/02/17 11:23:44;;;;;;;9.23;9.03;;;;;;;;;;5002790;28;20464;-72
2024/02/17 11:26:16;;;;;;;9.87;9.67;;;;;;;;;;5005827;28;20824;-71
2024/02/17 11:28:43;;;;;;;9.20;9.00;;;;;;;;;;5008003;27;20900;-71
2024/02/17 11:31:12;;;;;;;9.13;8.93;;;;;;;;;;5007795;27;20451;-71
2024/02/17 11:33:39;;;;;;;9.77;9.57;;;;;;;;;;5006468;27;20506;-71
2024/02/17 11:36:08;;;;;;;9.93;9.73;;;;;;;;;;5009097;28;20485;-70
2024/02/17 11:38:36;;;;;;;9.87;9.67;;;;;;;;;;4998920;28;20961;-70
2024/02/17 11:41:04;;;;;;;9.77;9.57;;;;;;;;;;5017364;27;20482;-71
2024/02/17 11:43:32;;;;;;;10.43;10.23;;;;;;;;;;5022316;27;20881;-72
2024/02/17 11:45:59;;;;;;;10.10;9.90;;;;;;;;;;5022529;27;20463;-71
2024/02/17 11:48:29;;;;;;;10.10;9.90;;;;;;;;;;5020741;27;20481;-72
2024/02/17 11:53:45;;;;;;;10.97;10.67;;;;;;;;;;5015422;27;20506;-72
2024/02/17 11:56:13;;;;;;;10.27;10.07;;;;;;;;;;5018409;27;20495;-71
2024/02/17 11:58:40;;;;;;;10.63;10.40;;;;;;;;;;5027003;27;20473;-71
2024/02/17 12:01:08;;;;;;;11.07;10.77;;;;;;;;;;5020023;27;20496;-71
2024/02/17 12:03:37;;;;;;;11.30;11.00;;;;;;;;;;5019351;28;20469;-71
2024/02/17 12:06:06;;;;;;;10.97;10.67;;;;;;;;;;5004829;28;20514;-72
2024/02/17 12:08:35;;;;;;;11.20;10.90;;;;;;;;;;5010508;28;20470;-71
2024/02/17 12:11:03;;;;;;;10.83;10.53;;;;;;;;;;5011196;28;20526;-70
2024/02/17 12:13:31;;;;;;;11.10;10.80;;;;;;;;;;5005586;28;20590;-71
2024/02/17 12:16:04;;;;;;;11.20;10.90;;;;;;;;;;5008272;28;20473;-70
2024/02/17 12:18:33;;;;;;;11.77;11.47;;;;;;;;;;5003706;28;20455;-72
2024/02/17 12:21:05;;;;;;;11.40;11.10;;;;;;;;;;5012971;28;20564;-72
2024/02/17 12:23:33;;;;;;;11.17;10.87;;;;;;;;;;5010018;28;20536;-73
2024/02/17 12:26:00;;;;;;;11.00;10.70;;;;;;;;;;5000701;28;20465;-71
2024/02/17 12:28:28;;;;;;;11.17;10.87;;;;;;;;;;5010068;28;20469;-72
2024/02/17 12:30:56;;;;;;;11.40;11.10;;;;;;;;;;5008159;28;20475;-72
2024/02/17 12:33:24;;;;;;;11.13;10.83;;;;;;;;;;5009379;28;20966;-71
2024/02/17 12:35:52;;;;;;;11.40;11.10;;;;;;;;;;5007682;28;20457;-71
2024/02/17 12:38:23;;;;;;;11.10;10.80;;;;;;;;;;5006840;28;20614;-71
2024/02/17 12:40:51;;;;;;;11.40;11.10;;;;;;;;;;5006688;28;20507;-71
2024/02/17 12:43:20;;;;;;;12.70;12.30;;;;;;;;;;5008949;28;20477;-70
2024/02/17 12:45:47;;;;;;;12.10;11.70;;;;;;;;;;5007446;28;20495;-71
2024/02/17 12:48:15;;;;;;;11.80;11.50;;;;;;;;;;5010361;28;20565;-70
2024/02/17 12:50:43;;;;;;;11.80;11.50;;;;;;;;;;5013497;28;20538;-72
2024/02/17 12:53:16;;;;;;;11.80;11.50;;;;;;;;;;5008759;27;20510;-71
2024/02/17 12:55:45;;;;;;;12.27;11.87;;;;;;;;;;5007672;28;20471;-72
2024/02/17 12:58:13;;;;;;;12.30;11.90;;;;;;;;;;5012349;28;20590;-72
2024/02/17 13:00:40;;;;;;;12.00;11.60;;;;;;;;;;5012026;28;20815;-71
2024/02/17 13:03:08;;;;;;;12.17;11.77;;;;;;;;;;5009823;28;20980;-72
2024/02/17 13:05:36;;;;;;;12.00;11.70;;;;;;;;;;5006645;28;20809;-71
2024/02/17 13:08:03;;;;;;;11.80;11.50;;;;;;;;;;5011621;27;20470;-72
2024/02/17 13:10:32;;;;;;;11.97;11.67;;;;;;;;;;5014114;27;20467;-73
2024/02/17 13:13:00;;;;;;;11.33;11.03;;;;;;;;;;5011535;27;20568;-71
2024/02/17 13:15:29;;;;;;;11.30;11.00;;;;;;;;;;5011476;27;20925;-73
2024/02/17 13:17:56;;;;;;;12.20;11.90;;;;;;;;;;5004715;27;20492;-73
2024/02/17 13:20:23;;;;;;;11.70;11.40;;;;;;;;;;5011676;28;20458;-72
2024/02/17 13:22:51;;;;;;;11.13;10.83;;;;;;;;;;5011931;27;20978;-71
2024/02/17 13:25:18;;;;;;;11.93;11.63;;;;;;;;;;5010058;28;20526;-72
2024/02/17 13:27:46;;;;;;;11.53;11.23;;;;;;;;;;5013075;27;20477;-71
2024/02/17 13:30:15;;;;;;;11.40;11.10;;;;;;;;;;5010892;28;20946;-71
2024/02/17 13:32:43;;;;;;;11.70;11.40;;;;;;;;;;5012120;28;20483;-72
2024/02/17 13:35:10;;;;;;;11.20;10.90;;;;;;;;;;5006598;27;20477;-72
2024/02/17 13:37:37;;;;;;;11.50;11.20;;;;;;;;;;5006741;28;20493;-72
2024/02/17 13:40:06;;;;;;;11.67;11.37;;;;;;;;;;5007908;28;20469;-72
2024/02/17 13:42:34;;;;;;;11.30;11.00;;;;;;;;;;5011898;28;20467;-72
2024/02/17 13:45:01;;;;;;;11.40;11.10;;;;;;;;;;5010931;27;20505;-73
2024/02/17 13:47:34;;;;;;;10.93;10.73;;;;;;;;;;5013685;27;20465;-72
2024/02/17 13:50:01;;;;;;;11.60;11.30;;;;;;;;;;5008334;28;20497;-71
2024/02/17 13:52:28;;;;;;;11.47;11.17;;;;;;;;;;5011079;27;20507;-72
2024/02/17 13:54:56;;;;;;;11.20;10.90;;;;;;;;;;5004867;27;20491;-71
2024/02/17 13:57:23;;;;;;;11.80;11.50;;;;;;;;;;5010153;28;20766;-72
2024/02/17 13:59:51;;;;;;;11.90;11.60;;;;;;;;;;5009836;28;20458;-73
2024/02/17 14:02:18;;;;;;;11.90;11.60;;;;;;;;;;5008763;27;20556;-72
2024/02/17 14:04:47;;;;;;;11.67;11.37;;;;;;;;;;5005121;28;20923;-73
2024/02/17 14:07:14;;;;;;;11.30;11.00;;;;;;;;;;5003078;27;21001;-72
2024/02/17 14:09:41;;;;;;;11.40;11.10;;;;;;;;;;5011718;27;20472;-72
2024/02/17 14:12:09;;;;;;;12.20;11.90;;;;;;;;;;5011374;27;20556;-72
2024/02/17 14:14:36;;;;;;;11.30;11.00;;;;;;;;;;5013533;27;20466;-72
2024/02/17 14:17:03;;;;;;;11.50;11.20;;;;;;;;;;5012784;27;20492;-72
2024/02/17 14:19:33;;;;;;;12.30;12.00;;;;;;;;;;5003847;28;20469;-73
2024/02/17 14:22:02;;;;;;;11.60;11.30;;;;;;;;;;5003241;28;20462;-73
2024/02/17 14:24:31;;;;;;;11.00;10.70;;;;;;;;;;5005909;28;20466;-73
2024/02/17 14:26:59;;;;;;;11.40;11.10;;;;;;;;;;5010644;27;20558;-73
2024/02/17 14:29:26;;;;;;;11.50;11.20;;;;;;;;;;5009791;28;20551;-72
2024/02/17 14:31:53;;;;;;;11.40;11.10;;;;;;;;;;5010966;28;20477;-72
2024/02/17 14:34:21;;;;;;;11.37;11.07;;;;;;;;;;5007967;27;20465;-72
2024/02/17 14:36:49;;;;;;;11.30;11.00;;;;;;;;;;5010373;28;20474;-72
2024/02/17 14:39:17;;;;;;;11.80;11.50;;;;;;;;;;5006989;28;21000;-72
2024/02/17 14:41:45;;;;;;;11.70;11.40;;;;;;;;;;5006991;28;20461;-73
2024/02/17 14:44:12;;;;;;;11.70;11.40;;;;;;;;;;5010603;28;20489;-71
2024/02/17 14:46:39;;;;;;;11.13;10.83;;;;;;;;;;5009520;27;20466;-73